createdAt,value
2018-11-25T00:00:48.724Z,0.00
2018-11-25T00:01:49.511Z,0.00
2018-11-25T00:02:48.706Z,0.00
2018-11-25T00:03:49.505Z,0.00
2018-11-25T00:04:48.634Z,0.00
2018-11-25T00:05:48.557Z,0.00
2018-11-25T00:06:48.526Z,0.00
2018-11-25T00:07:48.488Z,0.00
2018-11-25T00:08:48.504Z,0.00
2018-11-25T00:09:49.012Z,0.00
2018-11-25T00:10:48.395Z,0.00
2018-11-25T00:11:48.402Z,0.00
2018-11-25T00:12:48.321Z,0.00
2018-11-25T00:13:48.338Z,0.00
2018-11-25T00:14:48.280Z,0.00
2018-11-25T00:15:49.005Z,0.00
2018-11-25T00:16:48.195Z,0.00
2018-11-25T00:17:49.008Z,0.00
2018-11-25T00:18:48.169Z,0.00
2018-11-25T00:19:48.103Z,0.00
2018-11-25T00:20:48.065Z,0.00
2018-11-25T00:21:48.022Z,0.00
2018-11-25T00:22:48.013Z,0.00
2018-11-25T00:23:48.088Z,0.00
2018-11-25T00:24:48.513Z,0.00
2018-11-25T00:25:47.894Z,0.00
2018-11-25T00:26:47.862Z,0.00
2018-11-25T00:27:47.856Z,0.00
2018-11-25T00:28:48.088Z,0.00
2018-11-25T00:29:47.766Z,0.00
2018-11-25T00:30:47.729Z,0.00
2018-11-25T00:31:48.508Z,0.00
2018-11-25T00:32:48.516Z,0.00
2018-11-25T00:33:47.687Z,0.00
2018-11-25T00:34:47.601Z,0.00
2018-11-25T00:35:47.565Z,0.00
2018-11-25T00:36:48.514Z,0.00
2018-11-25T00:37:48.526Z,0.00
2018-11-25T00:38:47.523Z,0.00
2018-11-25T00:39:48.026Z,0.00
2018-11-25T00:40:48.010Z,0.00
2018-11-25T00:41:47.368Z,0.00
2018-11-25T00:42:48.015Z,0.00
2018-11-25T00:43:47.567Z,0.00
2018-11-25T00:44:47.268Z,0.00
2018-11-25T00:45:47.278Z,0.00
2018-11-25T00:46:47.329Z,0.00
2018-11-25T00:47:47.169Z,0.00
2018-11-25T00:48:47.136Z,0.00
2018-11-25T00:49:48.017Z,0.00
2018-11-25T00:50:47.067Z,0.00
2018-11-25T00:51:47.571Z,0.00
2018-11-25T00:52:47.531Z,0.00
2018-11-25T00:53:47.518Z,0.00
2018-11-25T00:54:46.936Z,0.00
2018-11-25T00:55:46.907Z,0.00
2018-11-25T00:56:47.016Z,0.00
2018-11-25T00:57:46.846Z,0.00
2018-11-25T00:58:46.801Z,0.00
2018-11-25T00:59:47.563Z,0.00
2018-11-25T01:00:46.781Z,0.00
2018-11-25T01:01:46.708Z,0.00
2018-11-25T01:02:46.718Z,0.00
2018-11-25T01:03:46.639Z,0.00
2018-11-25T01:04:46.610Z,0.00
2018-11-25T01:05:46.581Z,0.00
2018-11-25T01:06:47.514Z,0.00
2018-11-25T01:07:46.566Z,0.00
2018-11-25T01:08:47.017Z,0.00
2018-11-25T01:09:46.449Z,0.00
2018-11-25T01:10:46.409Z,0.00
2018-11-25T01:11:46.374Z,0.00
2018-11-25T01:12:46.386Z,0.00
2018-11-25T01:13:46.311Z,0.00
2018-11-25T01:14:47.012Z,0.00
2018-11-25T01:15:46.244Z,0.00
2018-11-25T01:16:46.211Z,0.00
2018-11-25T01:17:46.234Z,0.00
2018-11-25T01:18:46.150Z,0.00
2018-11-25T01:19:47.016Z,0.00
2018-11-25T01:20:46.082Z,0.00
2018-11-25T01:21:46.048Z,0.00
2018-11-25T01:22:46.069Z,0.00
2018-11-25T01:23:46.048Z,0.00
2018-11-25T01:24:46.519Z,0.00
2018-11-25T01:25:46.519Z,0.00
2018-11-25T01:26:45.884Z,0.00
2018-11-25T01:27:45.852Z,0.00
2018-11-25T01:28:45.873Z,0.00
2018-11-25T01:29:46.528Z,0.00
2018-11-25T01:30:46.533Z,0.00
2018-11-25T01:31:46.524Z,0.00
2018-11-25T01:32:46.520Z,0.00
2018-11-25T01:33:46.071Z,0.00
2018-11-25T01:34:45.679Z,0.00
2018-11-25T01:35:46.541Z,0.00
2018-11-25T01:36:46.617Z,0.00
2018-11-25T01:37:46.527Z,0.00
2018-11-25T01:38:46.040Z,0.00
2018-11-25T01:39:45.581Z,0.00
2018-11-25T01:40:46.016Z,0.00
2018-11-25T01:41:46.020Z,0.00
2018-11-25T01:42:45.355Z,0.00
2018-11-25T01:43:45.369Z,0.00
2018-11-25T01:44:46.029Z,0.00
2018-11-25T01:45:45.314Z,0.00
2018-11-25T01:46:45.234Z,0.00
2018-11-25T01:47:45.246Z,0.00
2018-11-25T01:48:45.170Z,0.00
2018-11-25T01:49:45.141Z,0.00
2018-11-25T01:50:45.156Z,0.00
2018-11-25T01:51:46.025Z,0.00
2018-11-25T01:52:46.033Z,0.00
2018-11-25T01:53:45.527Z,0.00
2018-11-25T01:54:45.024Z,0.00
2018-11-25T01:55:44.937Z,0.00
2018-11-25T01:56:44.945Z,0.00
2018-11-25T01:57:44.866Z,0.00
2018-11-25T01:58:44.846Z,0.00
2018-11-25T01:59:44.821Z,0.00
2018-11-25T02:00:45.530Z,0.00
2018-11-25T02:01:44.788Z,0.00
2018-11-25T02:02:44.708Z,0.00
2018-11-25T02:03:44.768Z,0.00
2018-11-25T02:04:44.636Z,0.00
2018-11-25T02:05:44.603Z,0.00
2018-11-25T02:06:45.085Z,0.00
2018-11-25T02:07:44.560Z,0.00
2018-11-25T02:08:44.512Z,0.00
2018-11-25T02:09:44.474Z,0.00
2018-11-25T02:10:44.444Z,0.00
2018-11-25T02:11:44.450Z,0.00
2018-11-25T02:12:44.381Z,0.00
2018-11-25T02:13:44.339Z,0.00
2018-11-25T02:14:44.306Z,0.00
2018-11-25T02:15:44.322Z,0.00
2018-11-25T02:16:44.278Z,0.00
2018-11-25T02:17:44.215Z,0.00
2018-11-25T02:18:44.176Z,0.00
2018-11-25T02:19:45.026Z,0.00
2018-11-25T02:20:44.111Z,0.00
2018-11-25T02:21:45.081Z,0.00
2018-11-25T02:22:44.112Z,0.00
2018-11-25T02:23:44.013Z,0.00
2018-11-25T02:24:43.978Z,0.00
2018-11-25T02:25:43.993Z,0.00
2018-11-25T02:26:43.918Z,0.00
2018-11-25T02:27:43.886Z,0.00
2018-11-25T02:28:43.848Z,0.00
2018-11-25T02:29:44.524Z,0.00
2018-11-25T02:30:43.827Z,0.00
2018-11-25T02:31:43.752Z,0.00
2018-11-25T02:32:44.525Z,0.00
2018-11-25T02:33:43.685Z,0.00
2018-11-25T02:34:43.653Z,0.00
2018-11-25T02:35:43.672Z,0.00
2018-11-25T02:36:44.521Z,0.00
2018-11-25T02:37:43.596Z,0.00
2018-11-25T02:38:44.023Z,0.00
2018-11-25T02:39:43.506Z,0.00
2018-11-25T02:40:43.655Z,0.00
2018-11-25T02:41:43.420Z,0.00
2018-11-25T02:42:43.389Z,0.00
2018-11-25T02:43:44.023Z,0.00
2018-11-25T02:44:44.026Z,0.00
2018-11-25T02:45:43.335Z,0.00
2018-11-25T02:46:43.257Z,0.00
2018-11-25T02:47:43.578Z,0.00
2018-11-25T02:48:43.191Z,0.00
2018-11-25T02:49:43.162Z,0.00
2018-11-25T02:50:44.082Z,0.00
2018-11-25T02:51:43.094Z,0.00
2018-11-25T02:52:43.058Z,0.00
2018-11-25T02:53:43.036Z,0.00
2018-11-25T02:54:42.993Z,0.00
2018-11-25T02:55:43.000Z,0.00
2018-11-25T02:56:42.924Z,0.00
2018-11-25T02:57:42.893Z,0.00
2018-11-25T02:58:42.918Z,0.00
2018-11-25T02:59:42.826Z,0.00
2018-11-25T03:00:43.529Z,0.00
2018-11-25T03:01:43.531Z,0.00
2018-11-25T03:02:43.529Z,0.00
2018-11-25T03:03:42.750Z,0.00
2018-11-25T03:04:42.662Z,0.00
2018-11-25T03:05:42.634Z,0.00
2018-11-25T03:06:42.602Z,0.00
2018-11-25T03:07:42.568Z,0.00
2018-11-25T03:08:42.584Z,0.00
2018-11-25T03:09:43.029Z,0.00
2018-11-25T03:10:43.064Z,0.00
2018-11-25T03:11:42.433Z,0.00
2018-11-25T03:12:42.398Z,0.00
2018-11-25T03:13:42.605Z,0.00
2018-11-25T03:14:43.038Z,0.00
2018-11-25T03:15:42.305Z,0.00
2018-11-25T03:16:42.266Z,0.00
2018-11-25T03:17:42.237Z,0.00
2018-11-25T03:18:42.590Z,0.00
2018-11-25T03:19:42.217Z,0.00
2018-11-25T03:20:43.089Z,0.00
2018-11-25T03:21:42.114Z,0.00
2018-11-25T03:22:43.025Z,0.00
2018-11-25T03:23:43.030Z,0.00
2018-11-25T03:24:42.586Z,0.00
2018-11-25T03:25:42.533Z,0.00
2018-11-25T03:26:42.084Z,0.00
2018-11-25T03:27:42.528Z,0.00
2018-11-25T03:28:41.881Z,0.00
2018-11-25T03:29:41.881Z,0.00
2018-11-25T03:30:41.813Z,0.00
2018-11-25T03:31:42.528Z,0.00
2018-11-25T03:32:41.750Z,0.00
2018-11-25T03:33:41.729Z,0.00
2018-11-25T03:34:42.104Z,0.00
2018-11-25T03:35:41.646Z,0.00
2018-11-25T03:36:41.612Z,0.00
2018-11-25T03:37:41.593Z,0.00
2018-11-25T03:38:42.528Z,0.00
2018-11-25T03:39:41.558Z,0.00
2018-11-25T03:40:41.487Z,0.00
2018-11-25T03:41:41.445Z,0.00
2018-11-25T03:42:41.413Z,0.00
2018-11-25T03:43:41.382Z,0.00
2018-11-25T03:44:41.404Z,0.00
2018-11-25T03:45:41.315Z,0.00
2018-11-25T03:46:42.030Z,0.00
2018-11-25T03:47:41.252Z,0.00
2018-11-25T03:48:41.218Z,0.00
2018-11-25T03:49:41.613Z,0.00
2018-11-25T03:50:42.053Z,0.00
2018-11-25T03:51:42.037Z,0.00
2018-11-25T03:52:41.089Z,0.00
2018-11-25T03:53:41.101Z,0.00
2018-11-25T03:54:41.532Z,0.00
2018-11-25T03:55:41.101Z,0.00
2018-11-25T03:56:41.532Z,0.00
2018-11-25T03:57:40.921Z,0.00
2018-11-25T03:58:40.891Z,0.00
2018-11-25T03:59:40.856Z,0.00
2018-11-25T04:00:40.870Z,0.00
2018-11-25T04:01:40.792Z,0.00
2018-11-25T04:02:40.760Z,0.00
2018-11-25T04:03:40.765Z,0.00
2018-11-25T04:04:40.689Z,0.00
2018-11-25T04:05:40.687Z,0.00
2018-11-25T04:06:40.626Z,0.00
2018-11-25T04:07:40.593Z,0.00
2018-11-25T04:08:40.609Z,0.00
2018-11-25T04:09:40.531Z,0.00
2018-11-25T04:10:40.542Z,0.00
2018-11-25T04:11:40.468Z,0.00
2018-11-25T04:12:40.458Z,0.00
2018-11-25T04:13:40.451Z,0.00
2018-11-25T04:14:40.362Z,0.00
2018-11-25T04:15:41.034Z,0.00
2018-11-25T04:16:40.297Z,0.00
2018-11-25T04:17:41.071Z,0.00
2018-11-25T04:18:40.289Z,0.00
2018-11-25T04:19:41.040Z,0.00
2018-11-25T04:20:40.170Z,0.00
2018-11-25T04:21:41.035Z,0.00
2018-11-25T04:22:40.097Z,0.00
2018-11-25T04:23:40.606Z,0.00
2018-11-25T04:24:40.037Z,0.00
2018-11-25T04:25:40.004Z,0.00
2018-11-25T04:26:39.971Z,0.00
2018-11-25T04:27:42.537Z,0.00
2018-11-25T04:28:40.111Z,0.00
2018-11-25T04:29:39.873Z,0.00
2018-11-25T04:30:40.534Z,0.00
2018-11-25T04:31:40.535Z,0.00
2018-11-25T04:32:40.539Z,0.00
2018-11-25T04:33:39.796Z,0.00
2018-11-25T04:34:39.712Z,0.00
2018-11-25T04:35:40.539Z,0.00
2018-11-25T04:36:39.646Z,0.00
2018-11-25T04:37:40.444Z,0.00
2018-11-25T04:38:40.092Z,0.00
2018-11-25T04:39:40.542Z,0.00
2018-11-25T04:40:39.532Z,0.00
2018-11-25T04:41:40.038Z,0.00
2018-11-25T04:42:39.441Z,0.00
2018-11-25T04:43:39.469Z,0.00
2018-11-25T04:44:40.046Z,0.00
2018-11-25T04:45:40.036Z,0.00
2018-11-25T04:46:39.312Z,0.00
2018-11-25T04:47:40.042Z,0.00
2018-11-25T04:48:39.299Z,0.00
2018-11-25T04:49:40.045Z,0.00
2018-11-25T04:50:39.185Z,0.00
2018-11-25T04:51:40.040Z,0.00
2018-11-25T04:52:39.116Z,0.00
2018-11-25T04:53:39.131Z,0.00
2018-11-25T04:54:40.038Z,0.00
2018-11-25T04:55:39.133Z,0.00
2018-11-25T04:56:38.985Z,0.00
2018-11-25T04:57:38.953Z,0.00
2018-11-25T04:58:38.928Z,0.00
2018-11-25T04:59:38.885Z,0.00
2018-11-25T05:00:38.903Z,0.00
2018-11-25T05:01:38.824Z,0.00
2018-11-25T05:02:38.791Z,0.00
2018-11-25T05:03:38.801Z,0.00
2018-11-25T05:04:38.724Z,0.00
2018-11-25T05:05:39.551Z,0.00
2018-11-25T05:06:39.094Z,0.00
2018-11-25T05:07:38.630Z,0.00
2018-11-25T05:08:38.644Z,0.00
2018-11-25T05:09:38.571Z,0.00
2018-11-25T05:10:38.528Z,0.00
2018-11-25T05:11:38.495Z,0.00
2018-11-25T05:12:39.042Z,0.00
2018-11-25T05:13:38.475Z,0.00
2018-11-25T05:14:39.052Z,0.00
2018-11-25T05:15:38.364Z,0.00
2018-11-25T05:16:39.040Z,0.00
2018-11-25T05:17:39.948Z,0.00
2018-11-25T05:18:38.268Z,0.00
2018-11-25T05:19:39.043Z,0.00
2018-11-25T05:20:38.202Z,0.00
2018-11-25T05:21:38.170Z,0.00
2018-11-25T05:22:38.187Z,0.00
2018-11-25T05:23:38.105Z,0.00
2018-11-25T05:24:38.071Z,0.00
2018-11-25T05:25:38.098Z,0.00
2018-11-25T05:26:38.004Z,0.00
2018-11-25T05:27:37.972Z,0.00
2018-11-25T05:28:37.988Z,0.00
2018-11-25T05:29:37.914Z,0.00
2018-11-25T05:30:37.874Z,0.00
2018-11-25T05:31:37.844Z,0.00
2018-11-25T05:32:37.808Z,0.00
2018-11-25T05:33:37.818Z,0.00
2018-11-25T05:34:37.785Z,0.00
2018-11-25T05:35:37.721Z,0.00
2018-11-25T05:36:38.552Z,0.00
2018-11-25T05:37:37.659Z,0.00
2018-11-25T05:38:37.676Z,0.00
2018-11-25T05:39:37.637Z,0.00
2018-11-25T05:40:37.558Z,0.00
2018-11-25T05:41:37.518Z,0.00
2018-11-25T05:42:37.487Z,0.00
2018-11-25T05:43:37.523Z,0.00
2018-11-25T05:44:38.053Z,0.00
2018-11-25T05:45:37.435Z,0.00
2018-11-25T05:46:37.361Z,0.00
2018-11-25T05:47:37.952Z,0.00
2018-11-25T05:48:37.289Z,0.00
2018-11-25T05:49:37.255Z,0.00
2018-11-25T05:50:37.266Z,0.00
2018-11-25T05:51:37.204Z,0.00
2018-11-25T05:52:38.049Z,0.00
2018-11-25T05:53:37.127Z,0.00
2018-11-25T05:54:38.056Z,0.00
2018-11-25T05:55:37.103Z,0.00
2018-11-25T05:56:37.027Z,0.00
2018-11-25T05:57:37.548Z,0.00
2018-11-25T05:58:37.005Z,0.00
2018-11-25T05:59:36.927Z,0.00
2018-11-25T06:00:36.907Z,0.00
2018-11-25T06:01:36.887Z,0.00
2018-11-25T06:02:36.836Z,0.00
2018-11-25T06:03:36.846Z,0.00
2018-11-25T06:04:37.547Z,0.00
2018-11-25T06:05:36.749Z,0.00
2018-11-25T06:06:37.548Z,0.00
2018-11-25T06:07:37.094Z,0.00
2018-11-25T06:08:37.551Z,0.00
2018-11-25T06:09:37.552Z,0.00
2018-11-25T06:10:36.629Z,0.00
2018-11-25T06:11:37.047Z,0.00
2018-11-25T06:12:37.055Z,0.00
2018-11-25T06:13:36.483Z,0.00
2018-11-25T06:14:37.063Z,0.00
2018-11-25T06:15:36.445Z,0.00
2018-11-25T06:16:37.059Z,0.00
2018-11-25T06:17:37.051Z,0.00
2018-11-25T06:18:36.358Z,0.00
2018-11-25T06:19:37.049Z,0.00
2018-11-25T06:20:36.254Z,0.00
2018-11-25T06:21:36.253Z,0.00
2018-11-25T06:22:36.183Z,0.00
2018-11-25T06:23:36.145Z,0.00
2018-11-25T06:24:37.093Z,0.00
2018-11-25T06:25:36.128Z,0.00
2018-11-25T06:26:36.044Z,0.00
2018-11-25T06:27:38.350Z,0.00
2018-11-25T06:28:36.109Z,0.00
2018-11-25T06:29:35.958Z,0.00
2018-11-25T06:30:35.929Z,0.00
2018-11-25T06:31:35.951Z,0.00
2018-11-25T06:32:35.856Z,0.00
2018-11-25T06:33:36.120Z,0.00
2018-11-25T06:34:35.783Z,0.00
2018-11-25T06:35:35.756Z,0.00
2018-11-25T06:36:35.728Z,0.00
2018-11-25T06:37:36.108Z,0.00
2018-11-25T06:38:36.562Z,0.00
2018-11-25T06:39:36.571Z,0.00
2018-11-25T06:40:35.596Z,0.00
2018-11-25T06:41:35.558Z,0.00
2018-11-25T06:42:35.571Z,0.00
2018-11-25T06:43:35.488Z,0.00
2018-11-25T06:44:35.469Z,0.00
2018-11-25T06:45:35.427Z,5.63
2018-11-25T06:46:35.396Z,5.63
2018-11-25T06:47:35.608Z,5.63
2018-11-25T06:48:35.320Z,5.63
2018-11-25T06:49:35.350Z,5.63
2018-11-25T06:50:35.261Z,5.63
2018-11-25T06:51:36.052Z,5.63
2018-11-25T06:52:35.231Z,5.63
2018-11-25T06:53:35.209Z,5.63
2018-11-25T06:54:35.134Z,11.25
2018-11-25T06:55:35.154Z,11.25
2018-11-25T06:56:35.062Z,11.25
2018-11-25T06:57:35.033Z,11.25
2018-11-25T06:58:35.072Z,11.25
2018-11-25T06:59:34.972Z,11.25
2018-11-25T07:00:35.340Z,11.25
2018-11-25T07:01:35.553Z,11.25
2018-11-25T07:02:34.871Z,16.88
2018-11-25T07:03:34.900Z,16.88
2018-11-25T07:04:34.806Z,16.88
2018-11-25T07:05:34.777Z,16.88
2018-11-25T07:06:34.744Z,16.88
2018-11-25T07:07:34.734Z,16.88
2018-11-25T07:08:34.723Z,16.88
2018-11-25T07:09:34.641Z,16.88
2018-11-25T07:10:34.623Z,16.88
2018-11-25T07:11:34.578Z,16.88
2018-11-25T07:12:34.543Z,22.50
2018-11-25T07:13:34.552Z,22.50
2018-11-25T07:14:34.517Z,22.50
2018-11-25T07:15:35.054Z,22.50
2018-11-25T07:16:34.410Z,22.50
2018-11-25T07:17:35.055Z,22.50
2018-11-25T07:18:34.427Z,22.50
2018-11-25T07:19:34.319Z,28.13
2018-11-25T07:20:34.339Z,28.13
2018-11-25T07:21:35.063Z,33.75
2018-11-25T07:22:35.066Z,39.38
2018-11-25T07:23:34.256Z,45.00
2018-11-25T07:24:35.055Z,50.63
2018-11-25T07:25:34.118Z,50.63
2018-11-25T07:26:34.081Z,56.25
2018-11-25T07:27:34.049Z,56.25
2018-11-25T07:28:34.060Z,56.25
2018-11-25T07:29:33.986Z,61.88
2018-11-25T07:30:33.952Z,67.50
2018-11-25T07:31:33.979Z,67.50
2018-11-25T07:32:33.885Z,67.50
2018-11-25T07:33:33.927Z,67.50
2018-11-25T07:34:33.822Z,67.50
2018-11-25T07:35:33.835Z,67.50
2018-11-25T07:36:33.759Z,67.50
2018-11-25T07:37:33.790Z,67.50
2018-11-25T07:38:33.697Z,78.75
2018-11-25T07:39:33.659Z,78.75
2018-11-25T07:40:33.627Z,78.75
2018-11-25T07:41:33.598Z,84.38
2018-11-25T07:42:33.625Z,84.38
2018-11-25T07:43:33.533Z,84.38
2018-11-25T07:44:33.507Z,84.38
2018-11-25T07:45:33.478Z,84.38
2018-11-25T07:46:33.437Z,90.00
2018-11-25T07:47:33.451Z,95.63
2018-11-25T07:48:33.399Z,101.25
2018-11-25T07:49:33.341Z,106.88
2018-11-25T07:50:33.365Z,112.50
2018-11-25T07:51:33.275Z,112.50
2018-11-25T07:52:33.241Z,112.50
2018-11-25T07:53:33.217Z,118.13
2018-11-25T07:54:33.185Z,112.50
2018-11-25T07:55:33.210Z,106.88
2018-11-25T07:56:33.115Z,101.25
2018-11-25T07:57:34.231Z,95.63
2018-11-25T07:58:33.062Z,84.38
2018-11-25T07:59:33.025Z,78.75
2018-11-25T08:00:33.138Z,78.75
2018-11-25T08:01:32.977Z,78.75
2018-11-25T08:02:32.922Z,78.75
2018-11-25T08:03:32.891Z,78.75
2018-11-25T08:04:32.858Z,78.75
2018-11-25T08:05:32.872Z,73.13
2018-11-25T08:06:33.580Z,73.13
2018-11-25T08:07:32.770Z,67.50
2018-11-25T08:08:32.785Z,67.50
2018-11-25T08:09:33.563Z,67.50
2018-11-25T08:10:32.713Z,73.13
2018-11-25T08:11:32.636Z,73.13
2018-11-25T08:12:32.601Z,73.13
2018-11-25T08:13:32.576Z,73.13
2018-11-25T08:14:32.541Z,73.13
2018-11-25T08:15:32.568Z,78.75
2018-11-25T08:16:32.490Z,78.75
2018-11-25T08:17:33.065Z,78.75
2018-11-25T08:18:32.433Z,78.75
2018-11-25T08:19:32.416Z,78.75
2018-11-25T08:20:32.398Z,78.75
2018-11-25T08:21:32.310Z,84.38
2018-11-25T08:22:32.278Z,90.00
2018-11-25T08:23:32.257Z,90.00
2018-11-25T08:24:32.217Z,90.00
2018-11-25T08:25:32.230Z,95.63
2018-11-25T08:26:32.154Z,95.63
2018-11-25T08:27:32.133Z,95.63
2018-11-25T08:28:32.225Z,95.63
2018-11-25T08:29:32.058Z,95.63
2018-11-25T08:30:32.067Z,95.63
2018-11-25T08:31:31.993Z,95.63
2018-11-25T08:32:31.999Z,101.25
2018-11-25T08:33:31.926Z,101.25
2018-11-25T08:34:31.945Z,101.25
2018-11-25T08:35:31.912Z,101.25
2018-11-25T08:36:31.830Z,101.25
2018-11-25T08:37:31.800Z,101.25
2018-11-25T08:38:31.774Z,106.88
2018-11-25T08:39:31.780Z,106.88
2018-11-25T08:40:31.742Z,106.88
2018-11-25T08:41:31.675Z,106.88
2018-11-25T08:42:31.639Z,106.88
2018-11-25T08:43:31.608Z,106.88
2018-11-25T08:44:31.585Z,118.13
2018-11-25T08:45:31.614Z,129.38
2018-11-25T08:46:31.515Z,118.13
2018-11-25T08:47:31.495Z,118.13
2018-11-25T08:48:32.979Z,123.75
2018-11-25T08:49:31.425Z,118.13
2018-11-25T08:50:31.428Z,118.13
2018-11-25T08:51:32.045Z,118.13
2018-11-25T08:52:31.628Z,129.38
2018-11-25T08:53:31.302Z,135.00
2018-11-25T08:54:31.267Z,140.63
2018-11-25T08:55:31.271Z,146.25
2018-11-25T08:56:31.203Z,151.88
2018-11-25T08:57:31.222Z,157.50
2018-11-25T08:58:31.180Z,157.50
2018-11-25T08:59:31.104Z,163.13
2018-11-25T09:00:31.131Z,168.75
2018-11-25T09:01:31.038Z,180.00
2018-11-25T09:02:31.006Z,180.00
2018-11-25T09:03:30.982Z,180.00
2018-11-25T09:04:30.982Z,180.00
2018-11-25T09:05:30.970Z,185.63
2018-11-25T09:06:30.881Z,174.38
2018-11-25T09:07:30.871Z,168.75
2018-11-25T09:08:30.826Z,157.50
2018-11-25T09:09:30.786Z,151.88
2018-11-25T09:10:30.835Z,146.25
2018-11-25T09:11:30.730Z,146.25
2018-11-25T09:12:30.703Z,146.25
2018-11-25T09:13:30.767Z,151.88
2018-11-25T09:14:30.629Z,157.50
2018-11-25T09:15:30.648Z,157.50
2018-11-25T09:16:30.590Z,157.50
2018-11-25T09:17:30.540Z,163.13
2018-11-25T09:18:30.649Z,168.75
2018-11-25T09:19:30.510Z,180.00
2018-11-25T09:20:30.522Z,185.63
2018-11-25T09:21:30.422Z,185.63
2018-11-25T09:22:30.385Z,191.25
2018-11-25T09:23:30.407Z,191.25
2018-11-25T09:24:30.318Z,202.50
2018-11-25T09:25:30.286Z,185.63
2018-11-25T09:26:30.259Z,202.50
2018-11-25T09:27:30.223Z,202.50
2018-11-25T09:28:30.245Z,196.88
2018-11-25T09:29:30.474Z,191.25
2018-11-25T09:30:30.129Z,185.63
2018-11-25T09:31:30.098Z,180.00
2018-11-25T09:32:30.074Z,180.00
2018-11-25T09:33:30.092Z,180.00
2018-11-25T09:34:30.002Z,185.63
2018-11-25T09:35:30.025Z,185.63
2018-11-25T09:36:29.978Z,185.63
2018-11-25T09:37:29.916Z,191.25
2018-11-25T09:38:29.919Z,196.88
2018-11-25T09:39:29.845Z,196.88
2018-11-25T09:40:30.123Z,196.88
2018-11-25T09:41:29.786Z,196.88
2018-11-25T09:42:29.942Z,191.25
2018-11-25T09:43:30.482Z,185.63
2018-11-25T09:44:29.695Z,180.00
2018-11-25T09:45:30.128Z,180.00
2018-11-25T09:46:29.665Z,163.13
2018-11-25T09:47:29.599Z,5.63
2018-11-25T09:48:29.646Z,73.13
2018-11-25T09:49:29.542Z,90.00
2018-11-25T09:50:29.509Z,90.00
2018-11-25T09:51:29.476Z,90.00
2018-11-25T09:52:30.077Z,90.00
2018-11-25T09:53:29.455Z,90.00
2018-11-25T09:54:29.424Z,90.00
2018-11-25T09:55:29.344Z,90.00
2018-11-25T09:56:29.320Z,90.00
2018-11-25T09:57:29.277Z,5.63
2018-11-25T09:58:29.255Z,5.63
2018-11-25T09:59:29.254Z,5.63
2018-11-25T10:00:29.229Z,5.63
2018-11-25T10:01:29.162Z,5.63
2018-11-25T10:02:29.119Z,5.63
2018-11-25T10:03:30.075Z,5.63
2018-11-25T10:04:29.056Z,11.25
2018-11-25T10:05:29.104Z,11.25
2018-11-25T10:06:29.010Z,11.25
2018-11-25T10:07:28.975Z,11.25
2018-11-25T10:08:28.943Z,11.25
2018-11-25T10:09:28.929Z,11.25
2018-11-25T10:10:28.941Z,11.25
2018-11-25T10:12:10.187Z,16.88
2018-11-25T10:13:10.246Z,11.25
2018-11-25T10:14:10.123Z,5.63
2018-11-25T10:15:10.100Z,5.63
2018-11-25T10:16:10.122Z,0.00
2018-11-25T10:17:10.040Z,0.00
2018-11-25T10:18:10.149Z,5.63
2018-11-25T10:19:09.995Z,0.00
2018-11-25T10:20:09.963Z,0.00
2018-11-25T10:21:09.984Z,5.63
2018-11-25T10:22:10.116Z,5.63
2018-11-25T10:23:09.903Z,5.63
2018-11-25T10:24:09.859Z,0.00
2018-11-25T21:13:37.393Z,0.00
2018-11-25T21:15:20.138Z,0.00
2018-11-25T21:16:19.532Z,0.00
